Time;durP1;ratioP1;P1;durP2;ratioP2;P2;SDS_P1;SDS_P2;PMS_P1;PMS_P2;Temp;Humidity;BMP_temperature;BMP_pressure;BME280_temperature;BME280_humidity;BME280_pressure;Samples;Min_cycle;Max_cycle;Signal;HPM_P1;HPM_P2
2021/05/26 00:01:11;;;;;;;0.73;0.68;;;13.00;78.10;;;;;;5069125;28;20036;-59
2021/05/26 00:03:37;;;;;;;0.75;0.75;;;12.90;78.00;;;;;;5074972;28;20063;-59
2021/05/26 00:06:03;;;;;;;6.82;2.15;;;12.90;78.00;;;;;;5072042;28;20098;-59
2021/05/26 00:08:34;;;;;;;7.47;1.63;;;12.90;78.10;;;;;;5069913;28;20444;-60
2021/05/26 00:11:07;;;;;;;4.28;1.70;;;12.90;78.10;;;;;;5067600;28;20132;-59
2021/05/26 00:13:33;;;;;;;6.43;1.45;;;12.80;78.10;;;;;;5066484;28;20028;-59
2021/05/26 00:15:59;;;;;;;4.32;1.67;;;12.90;78.10;;;;;;5073809;28;20111;-59
2021/05/26 00:18:24;;;;;;;2.42;1.25;;;12.80;78.10;;;;;;5074080;28;20111;-59
2021/05/26 00:20:52;;;;;;;6.78;1.40;;;12.80;78.20;;;;;;5072649;28;20024;-59
2021/05/26 00:23:18;;;;;;;1.33;1.10;;;12.80;78.20;;;;;;5073771;28;20392;-59
2021/05/26 00:25:44;;;;;;;1.27;1.15;;;12.80;78.30;;;;;;5074689;28;20025;-59
2021/05/26 00:28:09;;;;;;;4.95;2.38;;;12.70;78.30;;;;;;5068899;28;20535;-60
2021/05/26 00:30:43;;;;;;;0.80;0.77;;;12.70;78.30;;;;;;5071393;28;20020;-60
2021/05/26 00:33:09;;;;;;;1.65;1.10;;;12.70;79.00;;;;;;5069387;28;20475;-59
2021/05/26 00:35:35;;;;;;;1.00;1.00;;;12.70;78.30;;;;;;5070330;28;20400;-59
2021/05/26 00:38:02;;;;;;;1.85;1.33;;;12.70;78.30;;;;;;5070553;28;20656;-59
2021/05/26 00:40:28;;;;;;;2.30;1.70;;;12.70;78.30;;;;;;5069716;28;20650;-59
2021/05/26 00:42:53;;;;;;;5.63;2.15;;;12.70;78.30;;;;;;5071830;28;20124;-59
2021/05/26 00:45:20;;;;;;;4.50;2.03;;;12.70;78.20;;;;;;5067951;28;20376;-59
2021/05/26 00:47:48;;;;;;;8.07;2.50;;;12.70;78.10;;;;;;5071809;28;20099;-59
2021/05/26 00:50:20;;;;;;;3.33;1.63;;;12.70;78.00;;;;;;5070608;28;20024;-59
2021/05/26 00:52:46;;;;;;;2.45;1.77;;;12.70;77.80;;;;;;5074215;28;20131;-59
2021/05/26 00:55:15;;;;;;;3.92;1.77;;;12.60;77.50;;;;;;5074333;28;20052;-59
2021/05/26 00:57:42;;;;;;;1.33;1.17;;;12.60;77.50;;;;;;5072050;28;20032;-60
2021/05/26 01:00:10;;;;;;;4.60;1.58;;;12.60;77.40;;;;;;5074161;28;20365;-59
2021/05/26 01:02:38;;;;;;;8.32;1.80;;;12.60;77.40;;;;;;5072729;28;20446;-59
2021/05/26 01:05:08;;;;;;;9.60;1.85;;;12.60;77.30;;;;;;5072178;28;20074;-60
2021/05/26 01:07:34;;;;;;;1.80;0.73;;;12.60;77.30;;;;;;5072594;28;20025;-59
2021/05/26 01:10:01;;;;;;;4.60;2.17;;;12.50;77.40;;;;;;5073763;28;20051;-59
2021/05/26 01:12:27;;;;;;;4.47;2.10;;;12.40;77.30;;;;;;5064193;28;20024;-59
2021/05/26 01:14:53;;;;;;;3.03;1.40;;;12.50;77.40;;;;;;5073413;28;20029;-59
2021/05/26 01:17:20;;;;;;;6.80;2.03;;;12.40;77.20;;;;;;5073725;28;20033;-60
2021/05/26 01:19:46;;;;;;;8.07;3.00;;;12.40;77.20;;;;;;5051171;28;20490;-59
2021/05/26 01:22:12;;;;;;;1.33;1.05;;;12.40;77.20;;;;;;5067790;28;20032;-59
2021/05/26 01:24:37;;;;;;;2.65;1.17;;;12.30;77.20;;;;;;5064729;28;20144;-59
2021/05/26 01:27:04;;;;;;;2.33;1.52;;;12.30;77.20;;;;;;5072656;28;20037;-59
2021/05/26 01:29:31;;;;;;;1.13;0.95;;;12.30;77.20;;;;;;5072084;28;20036;-59
2021/05/26 01:31:58;;;;;;;4.70;1.45;;;12.30;77.20;;;;;;5058292;28;20480;-59
2021/05/26 01:34:24;;;;;;;3.08;1.88;;;12.30;77.10;;;;;;5052910;28;20178;-59
2021/05/26 01:36:50;;;;;;;2.35;1.25;;;12.20;77.10;;;;;;5066764;28;20123;-59
2021/05/26 01:39:18;;;;;;;1.33;0.57;;;12.20;77.10;;;;;;5072824;28;20028;-59
2021/05/26 01:41:44;;;;;;;2.85;1.80;;;12.20;77.70;;;;;;5073252;28;20078;-60
2021/05/26 01:44:11;;;;;;;3.58;1.23;;;12.10;77.10;;;;;;5073366;28;20027;-59
2021/05/26 01:46:40;;;;;;;3.38;1.17;;;12.10;77.10;;;;;;5070861;28;20021;-59
2021/05/26 01:49:08;;;;;;;6.22;1.83;;;12.10;76.80;;;;;;5057285;28;20071;-59
2021/05/26 01:51:34;;;;;;;4.47;2.28;;;12.10;77.20;;;;;;5051824;28;20025;-59
2021/05/26 01:54:01;;;;;;;5.75;2.00;;;12.00;77.10;;;;;;5065200;28;20503;-59
2021/05/26 01:56:29;;;;;;;7.68;1.98;;;12.00;77.20;;;;;;5073073;28;20472;-59
2021/05/26 01:59:17;;;;;;;4.90;1.60;;;12.00;77.10;;;;;;5072829;28;20047;-59
2021/05/26 02:01:47;;;;;;;1.45;1.35;;;11.90;77.00;;;;;;5068418;28;20013;-59
2021/05/26 02:04:15;;;;;;;4.32;2.30;;;11.90;77.00;;;;;;5072803;28;20041;-59
2021/05/26 02:06:57;;;;;;;3.25;1.20;;;11.90;77.20;;;;;;5071490;28;20021;-59
2021/05/26 02:09:23;;;;;;;5.35;1.38;;;11.80;77.20;;;;;;5071853;28;20056;-59
2021/05/26 02:14:47;;;;;;;6.95;1.63;;;11.80;77.40;;;;;;5050786;28;20177;-59
2021/05/26 02:17:14;;;;;;;1.33;1.20;;;11.80;77.50;;;;;;5071345;28;20031;-59
2021/05/26 02:19:40;;;;;;;1.08;0.85;;;11.70;77.40;;;;;;5072582;28;20107;-59
2021/05/26 02:22:06;;;;;;;3.33;1.42;;;11.70;77.50;;;;;;5064246;28;20083;-59
2021/05/26 02:24:33;;;;;;;1.90;1.25;;;11.60;77.60;;;;;;5063929;28;20451;-59
2021/05/26 02:26:58;;;;;;;2.20;1.48;;;11.60;77.70;;;;;;5072548;28;20032;-59
2021/05/26 02:29:24;;;;;;;0.80;0.65;;;11.60;77.90;;;;;;5071861;28;20079;-59
2021/05/26 02:31:50;;;;;;;2.15;1.27;;;11.50;77.90;;;;;;5072474;28;20035;-60
2021/05/26 02:34:17;;;;;;;1.75;1.27;;;11.50;78.60;;;;;;5071345;28;20033;-59
2021/05/26 02:36:43;;;;;;;6.13;1.48;;;11.50;78.10;;;;;;5070506;28;20036;-60
2021/05/26 02:39:10;;;;;;;1.85;0.88;;;11.50;78.20;;;;;;5071358;28;20496;-59
2021/05/26 02:41:38;;;;;;;3.72;2.15;;;11.50;78.30;;;;;;5071560;28;20383;-59
2021/05/26 02:44:04;;;;;;;2.10;1.27;;;11.40;78.40;;;;;;5070399;28;20028;-59
2021/05/26 02:46:30;;;;;;;1.13;0.85;;;11.40;78.50;;;;;;5072510;28;20467;-59
2021/05/26 02:48:56;;;;;;;7.03;2.55;;;11.40;78.60;;;;;;5072384;28;20056;-59
2021/05/26 02:51:22;;;;;;;1.15;1.08;;;11.40;79.30;;;;;;5071992;28;20475;-59
2021/05/26 02:53:51;;;;;;;4.57;2.08;;;11.40;78.80;;;;;;5072440;28;20442;-59
2021/05/26 02:56:17;;;;;;;1.58;1.38;;;11.40;79.00;;;;;;5072589;28;20052;-59
2021/05/26 02:59:06;;;;;;;2.08;1.88;;;11.40;78.90;;;;;;5071572;28;20028;-60
2021/05/26 03:01:54;;;;;;;2.40;1.98;;;11.40;78.90;;;;;;5042026;28;20124;-59
2021/05/26 03:04:39;;;;;;;5.60;2.25;;;11.40;78.90;;;;;;5070442;28;20024;-59
2021/05/26 03:07:04;;;;;;;4.03;1.48;;;11.40;78.90;;;;;;5072359;28;20036;-59
2021/05/26 03:09:30;;;;;;;1.02;0.98;;;11.40;78.80;;;;;;5072145;28;20049;-59
2021/05/26 03:11:57;;;;;;;2.05;1.17;;;11.40;78.80;;;;;;5070307;28;20169;-59
2021/05/26 03:14:34;;;;;;;5.45;2.08;;;11.30;78.80;;;;;;5072264;28;20399;-59
2021/05/26 03:17:07;;;;;;;8.68;2.80;;;11.40;78.90;;;;;;5072419;28;20074;-60
2021/05/26 03:19:33;;;;;;;3.47;2.15;;;11.40;79.00;;;;;;5071345;28;20064;-59
2021/05/26 03:22:20;;;;;;;2.85;1.70;;;11.30;79.00;;;;;;5051803;28;20029;-59
2021/05/26 03:25:08;;;;;;;3.97;1.90;;;11.40;78.90;;;;;;5068324;28;20106;-59
2021/05/26 03:27:35;;;;;;;3.80;2.75;;;11.40;78.70;;;;;;5070816;28;20025;-59
2021/05/26 03:30:09;;;;;;;4.63;2.42;;;11.40;78.80;;;;;;5071969;28;20441;-60
2021/05/26 03:32:35;;;;;;;5.13;2.50;;;11.40;78.90;;;;;;5071670;28;20371;-59
2021/05/26 03:35:01;;;;;;;3.65;2.00;;;11.40;78.80;;;;;;5070678;28;20029;-59
2021/05/26 03:37:28;;;;;;;4.25;2.58;;;11.40;78.70;;;;;;5070705;28;20032;-59
2021/05/26 03:39:54;;;;;;;6.65;2.35;;;11.40;78.80;;;;;;5071385;28;20028;-59
2021/05/26 03:42:21;;;;;;;2.95;2.10;;;11.40;78.80;;;;;;5071917;28;20357;-59
2021/05/26 03:44:46;;;;;;;3.60;2.25;;;11.40;78.80;;;;;;5075525;28;20039;-59
2021/05/26 03:47:13;;;;;;;2.75;1.95;;;11.40;78.70;;;;;;5074860;28;20025;-59
2021/05/26 03:49:39;;;;;;;3.92;2.58;;;11.50;78.70;;;;;;5075554;28;20036;-59
2021/05/26 03:52:07;;;;;;;5.45;1.85;;;11.50;78.80;;;;;;5073911;28;20119;-59
2021/05/26 03:54:34;;;;;;;10.50;2.22;;;11.50;78.70;;;;;;5075058;28;20044;-59
2021/05/26 03:57:04;;;;;;;4.65;2.38;;;11.40;78.50;;;;;;5074149;28;20024;-59
2021/05/26 03:59:31;;;;;;;2.67;2.28;;;11.50;78.60;;;;;;5073601;28;20496;-59
2021/05/26 04:01:57;;;;;;;2.55;1.20;;;11.40;78.60;;;;;;5072633;28;20032;-59
2021/05/26 04:04:23;;;;;;;1.35;1.13;;;11.40;78.50;;;;;;5074082;28;20383;-59
2021/05/26 04:06:50;;;;;;;2.75;1.92;;;11.40;78.60;;;;;;5073851;28;20077;-59
2021/05/26 04:09:21;;;;;;;5.05;2.50;;;11.40;78.60;;;;;;5072771;28;20048;-59
2021/05/26 04:11:50;;;;;;;5.05;2.83;;;11.50;78.70;;;;;;5073535;28;20035;-59
2021/05/26 04:14:40;;;;;;;6.05;3.13;;;11.50;78.90;;;;;;5063351;28;20131;-59
2021/05/26 04:17:35;;;;;;;5.22;1.92;;;11.50;79.00;;;;;;5036268;28;20147;-59
2021/05/26 04:20:24;;;;;;;0.77;0.77;;;11.50;78.90;;;;;;5073527;28;20024;-59
2021/05/26 04:22:51;;;;;;;3.03;1.85;;;11.50;78.70;;;;;;5061580;28;20029;-59
2021/05/26 04:25:18;;;;;;;4.38;2.60;;;11.50;78.80;;;;;;5072231;28;20029;-59
2021/05/26 04:27:46;;;;;;;5.53;2.30;;;11.50;79.10;;;;;;5074652;28;20520;-59
2021/05/26 04:30:13;;;;;;;3.92;2.33;;;11.50;79.20;;;;;;5073945;28;20162;-59
2021/05/26 04:32:42;;;;;;;3.25;2.30;;;11.60;79.40;;;;;;5074937;28;20093;-59
2021/05/26 04:35:09;;;;;;;3.05;1.63;;;11.50;79.40;;;;;;5074093;28;20541;-59
2021/05/26 04:37:34;;;;;;;2.42;1.60;;;11.60;79.50;;;;;;5074740;28;20025;-59
2021/05/26 04:40:00;;;;;;;2.60;1.63;;;11.50;79.70;;;;;;5074715;28;20154;-59
2021/05/26 04:42:26;;;;;;;3.78;2.35;;;11.50;79.80;;;;;;5072437;28;20035;-59
2021/05/26 04:44:51;;;;;;;4.53;2.10;;;11.50;79.90;;;;;;5074410;28;20028;-59
2021/05/26 04:47:17;;;;;;;1.17;1.02;;;11.50;80.00;;;;;;5074339;28;20020;-59
2021/05/26 04:49:42;;;;;;;1.52;1.40;;;11.60;80.20;;;;;;5073767;28;20464;-59
2021/05/26 04:52:08;;;;;;;0.82;0.82;;;11.50;80.70;;;;;;5074316;28;20419;-59
2021/05/26 04:54:34;;;;;;;5.53;2.85;;;11.50;81.10;;;;;;5073414;28;20024;-59
2021/05/26 04:57:00;;;;;;;5.22;2.00;;;11.50;81.60;;;;;;5073698;28;20478;-59
2021/05/26 04:59:25;;;;;;;4.53;1.85;;;11.50;81.60;;;;;;5074143;28;20514;-59
2021/05/26 05:01:51;;;;;;;1.85;1.75;;;11.50;82.00;;;;;;5074020;28;20491;-59
2021/05/26 05:04:17;;;;;;;2.58;1.17;;;11.50;82.30;;;;;;5073538;28;20438;-60
2021/05/26 05:06:43;;;;;;;4.45;1.67;;;11.50;82.60;;;;;;5074191;28;20021;-59
2021/05/26 05:09:10;;;;;;;3.60;1.90;;;11.40;82.80;;;;;;5073673;28;20047;-59
2021/05/26 05:11:36;;;;;;;5.57;2.17;;;11.40;82.90;;;;;;5073455;28;20064;-62
2021/05/26 05:14:05;;;;;;;2.97;1.58;;;11.50;83.30;;;;;;5073970;28;20067;-60
2021/05/26 05:16:32;;;;;;;0.90;0.88;;;11.40;83.60;;;;;;5060253;28;20468;-59
2021/05/26 05:18:58;;;;;;;4.75;2.42;;;11.40;83.80;;;;;;5073330;28;20029;-61
2021/05/26 05:21:24;;;;;;;2.55;1.83;;;11.40;84.00;;;;;;5072720;28;20024;-60
2021/05/26 05:23:50;;;;;;;5.75;1.52;;;11.50;84.30;;;;;;5060076;28;20460;-59
2021/05/26 05:26:16;;;;;;;2.47;1.73;;;11.50;84.50;;;;;;5066082;28;20035;-59
2021/05/26 05:28:42;;;;;;;3.08;1.65;;;11.40;84.50;;;;;;5062844;28;20113;-59
2021/05/26 05:31:08;;;;;;;2.20;1.42;;;11.50;84.80;;;;;;5065839;28;20025;-59
2021/05/26 05:33:34;;;;;;;2.80;1.92;;;11.50;84.90;;;;;;5062837;28;20033;-59
2021/05/26 05:36:00;;;;;;;8.27;1.95;;;11.50;85.20;;;;;;5065924;28;20031;-59
2021/05/26 05:38:28;;;;;;;5.90;1.77;;;11.50;85.30;;;;;;5067120;28;20037;-59
2021/05/26 05:40:54;;;;;;;7.47;2.25;;;11.50;85.40;;;;;;5071463;28;20116;-59
2021/05/26 05:43:20;;;;;;;0.77;0.77;;;11.50;85.40;;;;;;5058882;28;20115;-59
2021/05/26 05:45:45;;;;;;;1.17;1.00;;;11.50;85.60;;;;;;5063468;28;20051;-60
2021/05/26 05:48:11;;;;;;;1.98;1.75;;;11.50;85.80;;;;;;5062136;28;20028;-60
2021/05/26 05:50:37;;;;;;;4.65;1.88;;;11.60;85.80;;;;;;5062345;28;20082;-64
2021/05/26 05:53:04;;;;;;;1.50;1.40;;;11.60;86.10;;;;;;5061780;28;20403;-59
2021/05/26 05:55:31;;;;;;;3.10;2.20;;;11.50;86.20;;;;;;5054790;28;20025;-60
2021/05/26 05:58:01;;;;;;;2.72;1.52;;;11.60;86.40;;;;;;5067859;28;20016;-59
2021/05/26 06:00:27;;;;;;;3.00;1.75;;;11.60;86.50;;;;;;5070612;28;20502;-60
2021/05/26 06:02:53;;;;;;;3.55;2.05;;;11.60;86.70;;;;;;5071596;28;20706;-61
2021/05/26 06:05:18;;;;;;;2.35;1.63;;;11.60;86.70;;;;;;5059269;28;20063;-59
2021/05/26 06:07:44;;;;;;;2.50;1.90;;;11.60;86.80;;;;;;5051549;28;20024;-59
2021/05/26 06:10:10;;;;;;;6.70;1.50;;;11.70;87.00;;;;;;5059618;28;20044;-59
2021/05/26 06:12:36;;;;;;;0.95;0.88;;;11.70;87.00;;;;;;5056938;28;20427;-59
2021/05/26 06:15:03;;;;;;;2.85;1.90;;;11.70;87.00;;;;;;5052703;28;20025;-59
2021/05/26 06:17:29;;;;;;;3.88;1.92;;;11.70;87.10;;;;;;5053313;28;20032;-59
2021/05/26 06:19:54;;;;;;;2.55;1.42;;;11.80;87.20;;;;;;5059423;28;20029;-60
2021/05/26 06:22:20;;;;;;;7.60;2.35;;;11.80;87.20;;;;;;5065923;28;20055;-60
2021/05/26 06:24:47;;;;;;;2.08;1.40;;;11.80;87.20;;;;;;5065035;28;20032;-60
2021/05/26 06:27:12;;;;;;;4.15;1.92;;;11.80;87.20;;;;;;5070931;28;20024;-60
2021/05/26 06:29:38;;;;;;;2.17;0.80;;;11.90;87.20;;;;;;5071172;28;20043;-60
2021/05/26 06:32:04;;;;;;;1.95;1.58;;;11.90;87.10;;;;;;5063815;28;20043;-59
2021/05/26 06:34:30;;;;;;;2.40;1.55;;;12.00;87.20;;;;;;5053504;28;20028;-60
2021/05/26 06:36:55;;;;;;;1.90;1.35;;;12.00;87.20;;;;;;5053585;28;20446;-59
2021/05/26 06:39:21;;;;;;;2.90;2.40;;;12.10;87.40;;;;;;5056052;28;20074;-60
2021/05/26 06:41:47;;;;;;;4.38;1.95;;;12.00;87.40;;;;;;5052265;28;20112;-60
2021/05/26 06:44:13;;;;;;;4.85;2.10;;;12.00;87.60;;;;;;5071567;28;20032;-60
2021/05/26 06:46:39;;;;;;;4.75;2.28;;;12.10;87.80;;;;;;5059166;28;20025;-60
2021/05/26 06:49:05;;;;;;;3.78;2.03;;;12.10;87.90;;;;;;5057414;28;20050;-60
2021/05/26 06:51:31;;;;;;;2.20;1.63;;;12.10;87.90;;;;;;5054470;28;20021;-59
2021/05/26 06:53:57;;;;;;;2.00;1.63;;;12.10;88.00;;;;;;5056405;28;20067;-59
2021/05/26 06:56:23;;;;;;;2.95;1.88;;;12.10;88.10;;;;;;5058201;28;20029;-60
2021/05/26 06:58:48;;;;;;;4.53;2.28;;;12.20;88.30;;;;;;5067932;28;20157;-60
2021/05/26 07:01:14;;;;;;;6.75;2.38;;;12.20;88.30;;;;;;5056437;28;20115;-60
2021/05/26 07:03:40;;;;;;;4.45;3.05;;;12.20;88.40;;;;;;5068373;28;20048;-60
2021/05/26 07:06:05;;;;;;;2.83;1.95;;;12.20;88.50;;;;;;5065444;28;20054;-60
2021/05/26 07:08:31;;;;;;;1.40;1.30;;;12.20;88.30;;;;;;5064373;28;20041;-60
2021/05/26 07:10:57;;;;;;;2.85;1.83;;;12.20;88.30;;;;;;5067268;28;20128;-60
2021/05/26 07:13:23;;;;;;;1.88;1.67;;;12.20;88.30;;;;;;5064876;28;20033;-59
2021/05/26 07:15:48;;;;;;;2.67;1.73;;;12.20;88.30;;;;;;5058739;28;20503;-59
2021/05/26 07:18:14;;;;;;;5.60;2.00;;;12.20;88.40;;;;;;5072022;28;20060;-59
2021/05/26 07:20:44;;;;;;;4.30;1.85;;;12.30;88.50;;;;;;5074961;28;20035;-59
2021/05/26 07:23:10;;;;;;;1.42;1.33;;;12.20;88.40;;;;;;5073205;28;20032;-60
2021/05/26 07:25:35;;;;;;;3.00;1.95;;;12.20;88.30;;;;;;5075017;28;20392;-59
2021/05/26 07:28:01;;;;;;;1.67;1.20;;;12.30;88.30;;;;;;5071377;28;20107;-59
2021/05/26 07:30:27;;;;;;;1.95;1.63;;;12.30;88.30;;;;;;5074487;28;20051;-59
2021/05/26 07:32:53;;;;;;;6.07;1.50;;;12.40;88.30;;;;;;5069310;28;20040;-59
2021/05/26 07:35:18;;;;;;;1.73;1.63;;;12.40;88.30;;;;;;5061198;28;20055;-59
2021/05/26 07:37:44;;;;;;;4.32;1.67;;;12.50;88.20;;;;;;5068377;28;20094;-60
2021/05/26 07:40:11;;;;;;;1.90;1.73;;;12.50;88.10;;;;;;5070732;28;20062;-59
2021/05/26 07:42:37;;;;;;;1.00;1.00;;;12.60;88.00;;;;;;5074698;28;20452;-60
2021/05/26 07:45:04;;;;;;;1.90;1.38;;;12.50;87.70;;;;;;5066816;28;20036;-61
2021/05/26 07:47:29;;;;;;;2.38;1.40;;;12.60;88.20;;;;;;5059792;28;20028;-59
2021/05/26 07:49:55;;;;;;;2.05;1.23;;;12.60;87.30;;;;;;5055278;28;20111;-59
2021/05/26 07:52:21;;;;;;;0.80;0.80;;;12.70;87.00;;;;;;5057225;28;20025;-59
2021/05/26 07:54:48;;;;;;;0.93;0.90;;;12.70;86.70;;;;;;5063209;28;20035;-59
2021/05/26 07:57:14;;;;;;;0.50;0.50;;;12.70;86.50;;;;;;5073544;28;20815;-59
2021/05/26 07:59:40;;;;;;;3.05;1.15;;;12.80;86.40;;;;;;5073260;28;20040;-59
2021/05/26 08:02:06;;;;;;;0.52;0.52;;;12.80;86.30;;;;;;5073342;28;20033;-61
2021/05/26 08:04:32;;;;;;;0.47;0.47;;;12.80;86.30;;;;;;5069554;28;20396;-61
2021/05/26 08:06:57;;;;;;;4.88;1.60;;;12.90;86.20;;;;;;5072572;28;20029;-60
2021/05/26 08:09:23;;;;;;;1.10;0.90;;;12.90;86.20;;;;;;5069720;28;20052;-60
2021/05/26 08:11:49;;;;;;;0.73;0.73;;;12.80;86.30;;;;;;5072897;28;20074;-60
2021/05/26 08:14:14;;;;;;;2.30;1.08;;;12.90;86.50;;;;;;5070250;28;20389;-60
2021/05/26 08:16:40;;;;;;;2.30;1.40;;;12.90;86.50;;;;;;5073154;28;20028;-60
2021/05/26 08:19:06;;;;;;;0.75;0.75;;;12.90;86.60;;;;;;5071287;28;20036;-59
2021/05/26 08:21:31;;;;;;;1.40;0.88;;;13.00;86.50;;;;;;5072969;28;20043;-63
2021/05/26 08:23:57;;;;;;;1.90;1.33;;;12.90;86.20;;;;;;5074870;28;20033;-60
2021/05/26 08:26:23;;;;;;;1.00;0.90;;;13.00;85.90;;;;;;5075089;28;20491;-60
2021/05/26 08:28:52;;;;;;;1.80;1.42;;;13.00;85.60;;;;;;5074021;28;20480;-61
2021/05/26 08:31:18;;;;;;;1.40;1.27;;;12.90;85.60;;;;;;5074991;28;20043;-61
2021/05/26 08:33:43;;;;;;;1.00;0.82;;;12.90;86.00;;;;;;5074622;28;20535;-61
2021/05/26 08:36:10;;;;;;;2.78;1.10;;;12.90;86.20;;;;;;5074041;28;20067;-61
2021/05/26 08:38:37;;;;;;;1.30;1.20;;;13.00;86.30;;;;;;5074744;28;20476;-63
2021/05/26 08:41:07;;;;;;;3.15;0.77;;;13.00;86.20;;;;;;5074906;28;20033;-62
2021/05/26 08:43:41;;;;;;;1.38;1.00;;;13.00;85.80;;;;;;5073898;28;20039;-62
2021/05/26 08:46:08;;;;;;;2.08;1.10;;;13.10;85.70;;;;;;5074356;28;20043;-64
2021/05/26 08:48:34;;;;;;;0.98;0.98;;;13.10;85.70;;;;;;5068967;28;20045;-61
2021/05/26 08:51:01;;;;;;;2.20;1.00;;;13.10;85.50;;;;;;5065300;28;20047;-60
2021/05/26 08:53:27;;;;;;;2.03;1.20;;;13.10;85.70;;;;;;5062897;28;20040;-60
2021/05/26 08:55:53;;;;;;;1.38;0.88;;;13.20;85.80;;;;;;5056181;28;20080;-59
2021/05/26 08:58:20;;;;;;;1.10;1.00;;;13.10;85.40;;;;;;5060630;28;20040;-59
2021/05/26 09:00:47;;;;;;;1.88;1.08;;;13.10;85.10;;;;;;5055943;28;20029;-59
2021/05/26 09:03:14;;;;;;;1.60;0.98;;;13.20;85.00;;;;;;5069374;28;20120;-59
2021/05/26 09:05:39;;;;;;;2.05;0.90;;;13.20;84.50;;;;;;5072438;28;20764;-60
2021/05/26 09:08:21;;;;;;;3.22;0.95;;;13.20;84.70;;;;;;5071952;28;20040;-59
2021/05/26 09:10:51;;;;;;;0.70;0.70;;;13.20;84.60;;;;;;5069886;28;20056;-59
2021/05/26 09:13:38;;;;;;;1.30;1.10;;;13.20;84.70;;;;;;5071497;28;20472;-60
2021/05/26 09:16:08;;;;;;;1.27;0.90;;;13.30;84.80;;;;;;5071362;28;20056;-59
2021/05/26 09:18:53;;;;;;;4.63;0.63;;;13.20;84.40;;;;;;5072648;28;20029;-59
2021/05/26 09:21:38;;;;;;;0.75;0.70;;;13.20;84.20;;;;;;5071590;28;20028;-59
2021/05/26 09:24:19;;;;;;;4.75;0.73;;;13.30;84.00;;;;;;5071291;28;20044;-59
2021/05/26 09:26:54;;;;;;;1.30;1.00;;;13.40;83.50;;;;;;5072274;28;20020;-61
2021/05/26 09:29:32;;;;;;;0.43;0.40;;;13.30;83.10;;;;;;5073010;28;20040;-59
2021/05/26 09:32:15;;;;;;;0.50;0.50;;;13.30;83.20;;;;;;5072124;28;20032;-60
2021/05/26 09:34:43;;;;;;;0.50;0.50;;;13.40;83.20;;;;;;5072463;28;20064;-59
2021/05/26 09:37:22;;;;;;;1.60;0.40;;;13.40;82.50;;;;;;5064212;28;20057;-60
2021/05/26 09:39:51;;;;;;;0.55;0.50;;;13.40;82.00;;;;;;5071446;28;20036;-59
2021/05/26 09:42:36;;;;;;;0.70;0.68;;;13.50;81.30;;;;;;5072781;28;20040;-60
2021/05/26 09:45:09;;;;;;;0.68;0.60;;;13.40;80.90;;;;;;5064978;28;20033;-60
2021/05/26 09:47:34;;;;;;;1.13;0.70;;;13.40;81.30;;;;;;5067678;28;20052;-59
2021/05/26 09:50:18;;;;;;;5.10;0.75;;;13.50;81.90;;;;;;5059504;28;20492;-59
2021/05/26 09:53:04;;;;;;;0.95;0.75;;;13.60;81.70;;;;;;5068547;28;20119;-60
2021/05/26 09:55:36;;;;;;;1.17;0.80;;;13.70;81.30;;;;;;5072360;28;20041;-60
2021/05/26 09:58:03;;;;;;;1.15;0.75;;;13.70;80.40;;;;;;5056616;28;20126;-60
2021/05/26 10:00:30;;;;;;;0.85;0.60;;;13.80;80.80;;;;;;5055644;28;20022;-60
2021/05/26 10:02:56;;;;;;;2.10;0.85;;;13.90;80.00;;;;;;5058149;28;20083;-60
2021/05/26 10:05:23;;;;;;;1.73;0.73;;;13.90;79.90;;;;;;5053782;28;20021;-59
2021/05/26 10:08:14;;;;;;;0.77;0.77;;;13.90;79.60;;;;;;5055520;28;20413;-60
2021/05/26 10:10:59;;;;;;;2.17;0.88;;;14.00;79.30;;;;;;5058047;28;20105;-60
2021/05/26 10:13:26;;;;;;;0.82;0.82;;;13.90;79.50;;;;;;5053846;28;20075;-59
2021/05/26 10:15:52;;;;;;;2.53;1.17;;;13.90;79.70;;;;;;5057286;28;20033;-59
2021/05/26 10:18:18;;;;;;;2.15;1.17;;;13.90;79.90;;;;;;5058553;28;20029;-60
2021/05/26 10:20:45;;;;;;;1.77;1.10;;;13.90;80.20;;;;;;5064670;28;20484;-59
2021/05/26 10:23:18;;;;;;;1.65;1.17;;;13.90;80.10;;;;;;5072812;28;20405;-59
2021/05/26 10:25:45;;;;;;;1.70;1.15;;;13.90;81.00;;;;;;5065057;28;20427;-59
2021/05/26 10:28:39;;;;;;;0.93;0.65;;;14.00;80.80;;;;;;5065939;28;20040;-59
2021/05/26 10:31:06;;;;;;;2.25;1.02;;;14.10;80.80;;;;;;5033231;28;20041;-59
2021/05/26 10:33:50;;;;;;;8.25;1.10;;;14.20;80.60;;;;;;5063673;28;20031;-60
2021/05/26 10:36:19;;;;;;;2.33;1.20;;;14.30;80.30;;;;;;5068682;28;20074;-59
2021/05/26 10:39:00;;;;;;;3.10;1.05;;;14.30;79.90;;;;;;5064831;28;20024;-60
2021/05/26 10:41:52;;;;;;;0.90;0.80;;;14.40;79.60;;;;;;5060193;28;20029;-59
2021/05/26 10:44:18;;;;;;;5.88;1.52;;;14.30;79.10;;;;;;5063746;28;20476;-59
2021/05/26 10:46:48;;;;;;;0.88;0.88;;;14.40;79.60;;;;;;5068171;28;20033;-60
2021/05/26 10:49:14;;;;;;;0.80;0.80;;;14.40;79.40;;;;;;5068632;28;20048;-59
2021/05/26 10:51:52;;;;;;;5.13;1.10;;;14.40;79.20;;;;;;5062434;28;20411;-60
2021/05/26 10:54:53;;;;;;;1.48;1.15;;;14.30;79.40;;;;;;5075436;28;20032;-60
2021/05/26 10:57:19;;;;;;;1.80;1.02;;;14.40;79.80;;;;;;5032867;28;20124;-59
2021/05/26 11:00:20;;;;;;;3.58;1.30;;;14.40;79.40;;;;;;5066794;28;20115;-59
2021/05/26 11:03:06;;;;;;;1.33;1.00;;;14.50;80.00;;;;;;5012675;28;20068;-59
2021/05/26 11:05:33;;;;;;;1.67;0.93;;;14.50;79.20;;;;;;5071409;28;20032;-59
2021/05/26 11:08:27;;;;;;;1.58;1.08;;;14.60;78.60;;;;;;5075252;28;20468;-59
2021/05/26 11:10:53;;;;;;;2.80;1.30;;;14.70;78.50;;;;;;5075202;28;20431;-59
2021/05/26 11:13:19;;;;;;;6.10;1.33;;;14.70;77.90;;;;;;5075800;28;20032;-60
2021/05/26 11:15:47;;;;;;;0.73;0.73;;;14.70;78.00;;;;;;5067870;28;20024;-59
2021/05/26 11:18:17;;;;;;;2.72;1.08;;;14.70;77.50;;;;;;5074298;28;20024;-59
2021/05/26 11:20:45;;;;;;;2.95;0.88;;;14.70;77.60;;;;;;5065526;28;20029;-59
2021/05/26 11:23:13;;;;;;;1.20;0.90;;;14.70;77.70;;;;;;5074710;28;20040;-59
2021/05/26 11:25:55;;;;;;;2.28;1.17;;;14.80;78.50;;;;;;5075572;28;20505;-59
2021/05/26 11:28:31;;;;;;;3.88;1.40;;;14.70;77.90;;;;;;5071164;28;20047;-59
2021/05/26 11:31:06;;;;;;;1.40;1.30;;;14.80;77.80;;;;;;5073980;28;20392;-59
2021/05/26 11:33:32;;;;;;;1.52;1.13;;;14.80;77.60;;;;;;5075511;28;20054;-59
2021/05/26 11:36:05;;;;;;;6.90;0.55;;;14.90;78.00;;;;;;5075757;28;20033;-59
2021/05/26 11:38:33;;;;;;;1.52;1.10;;;15.00;77.40;;;;;;5074900;28;20025;-59
2021/05/26 11:41:00;;;;;;;1.23;1.08;;;15.00;76.60;;;;;;5075464;28;20033;-59
2021/05/26 11:43:30;;;;;;;4.13;1.45;;;15.10;76.10;;;;;;5075071;28;20031;-59
2021/05/26 11:46:05;;;;;;;1.42;1.10;;;15.10;76.10;;;;;;5074798;28;20025;-59
2021/05/26 11:48:31;;;;;;;2.38;1.10;;;15.10;75.90;;;;;;5075261;28;20036;-59
2021/05/26 11:50:57;;;;;;;2.03;1.30;;;15.10;75.30;;;;;;5072319;28;20097;-59
2021/05/26 11:53:23;;;;;;;4.57;1.50;;;15.00;75.40;;;;;;5072844;28;20066;-60
2021/05/26 11:55:52;;;;;;;2.63;1.40;;;15.00;75.40;;;;;;5074737;28;20122;-60
2021/05/26 11:58:30;;;;;;;3.15;1.30;;;15.00;75.20;;;;;;5073748;28;20047;-59
2021/05/26 12:01:04;;;;;;;2.30;1.25;;;15.10;75.30;;;;;;5074628;28;20394;-59
2021/05/26 12:03:31;;;;;;;1.42;0.98;;;15.10;75.10;;;;;;5074181;28;20032;-59
2021/05/26 12:05:57;;;;;;;1.65;1.00;;;15.10;75.00;;;;;;5073708;28;20025;-59
2021/05/26 12:08:27;;;;;;;5.68;1.63;;;15.10;75.10;;;;;;5069994;28;20485;-59
2021/05/26 12:11:04;;;;;;;1.45;1.10;;;15.00;74.50;;;;;;5071924;28;20060;-59
2021/05/26 12:13:34;;;;;;;1.52;1.15;;;15.10;74.40;;;;;;5070504;28;20536;-59
2021/05/26 12:16:04;;;;;;;2.72;0.98;;;15.10;74.70;;;;;;5069297;28;20159;-60
2021/05/26 12:18:31;;;;;;;1.45;1.17;;;15.10;74.40;;;;;;5055453;28;20025;-60
2021/05/26 12:20:57;;;;;;;3.65;1.55;;;15.10;74.10;;;;;;5059551;28;20070;-59
2021/05/26 12:23:37;;;;;;;4.93;1.10;;;15.10;74.70;;;;;;5073128;28;20032;-59
2021/05/26 12:26:25;;;;;;;1.40;0.90;;;15.20;75.00;;;;;;5073151;28;20051;-59
2021/05/26 12:28:54;;;;;;;6.82;1.67;;;15.20;74.90;;;;;;5073941;28;20048;-59
2021/05/26 12:31:20;;;;;;;1.65;1.10;;;15.20;74.10;;;;;;5072710;28;20029;-59
2021/05/26 12:33:51;;;;;;;0.88;0.88;;;15.20;74.20;;;;;;5070674;28;20036;-59
2021/05/26 12:36:19;;;;;;;5.55;1.48;;;15.20;74.20;;;;;;5072950;28;20075;-59
2021/05/26 12:38:45;;;;;;;1.73;1.38;;;15.20;74.20;;;;;;5071300;28;20081;-59
2021/05/26 12:41:22;;;;;;;3.17;1.60;;;15.10;74.30;;;;;;5061846;28;20033;-59
2021/05/26 12:43:50;;;;;;;2.70;1.23;;;15.10;74.20;;;;;;5051373;28;20048;-59
2021/05/26 12:46:37;;;;;;;5.05;1.40;;;15.10;74.60;;;;;;5052918;28;20021;-59
2021/05/26 12:49:05;;;;;;;2.45;1.40;;;15.10;74.50;;;;;;5053594;28;20037;-59
2021/05/26 12:51:43;;;;;;;5.63;1.52;;;15.10;74.50;;;;;;5055216;28;20025;-59
2021/05/26 12:54:08;;;;;;;1.83;1.20;;;15.00;74.00;;;;;;5053889;28;20041;-59
2021/05/26 12:56:34;;;;;;;2.20;1.35;;;15.00;74.50;;;;;;5052856;28;20107;-59
2021/05/26 12:59:00;;;;;;;3.42;1.58;;;14.90;74.90;;;;;;5054411;28;20429;-60
2021/05/26 13:01:25;;;;;;;7.72;1.42;;;14.90;75.00;;;;;;5070087;28;20370;-61